createdAt,value
2023-04-07T00:01:03.247Z,86.75
2023-04-07T00:03:07.833Z,87.80
2023-04-07T00:05:11.099Z,87.65
2023-04-07T00:07:14.143Z,87.39
2023-04-07T00:09:17.299Z,87.94
2023-04-07T00:11:20.515Z,88.95
2023-04-07T00:13:23.976Z,88.06
2023-04-07T00:15:27.121Z,87.67
2023-04-07T00:17:31.646Z,88.86
2023-04-07T00:19:34.798Z,88.17
2023-04-07T00:21:37.976Z,88.79
2023-04-07T00:23:41.028Z,88.30
2023-04-07T00:25:44.040Z,89.46
2023-04-07T00:27:47.036Z,88.90
2023-04-07T00:29:50.206Z,89.55
2023-04-07T00:31:53.547Z,89.84
2023-04-07T00:33:58.101Z,89.73
2023-04-07T00:36:02.464Z,89.45
2023-04-07T00:38:05.624Z,89.54
2023-04-07T00:40:09.877Z,88.91
2023-04-07T00:42:12.904Z,89.03
2023-04-07T00:44:16.157Z,90.01
2023-04-07T00:46:19.739Z,89.27
2023-04-07T00:48:23.267Z,89.07
2023-04-07T00:50:27.793Z,89.28
2023-04-07T00:52:30.903Z,88.82
2023-04-07T00:54:34.185Z,89.26
2023-04-07T00:56:37.424Z,87.90
2023-04-07T00:58:40.772Z,88.95
2023-04-07T01:00:48.309Z,87.70
2023-04-07T01:02:56.986Z,88.70
2023-04-07T01:05:08.624Z,88.18
2023-04-07T01:07:17.410Z,89.67
2023-04-07T01:09:29.690Z,89.48
2023-04-07T01:11:43.852Z,89.37
2023-04-07T01:13:53.125Z,88.32
2023-04-07T01:16:13.011Z,88.90
2023-04-07T01:18:23.663Z,87.95
2023-04-07T01:20:28.944Z,88.63
2023-04-07T01:22:42.393Z,87.76
2023-04-07T01:25:07.677Z,87.91
2023-04-07T01:27:21.337Z,88.35
2023-04-07T01:29:32.371Z,87.81
2023-04-07T01:31:36.124Z,88.86
2023-04-07T01:33:40.285Z,89.01
2023-04-07T01:35:44.155Z,88.10
2023-04-07T01:37:48.920Z,88.44
2023-04-07T01:39:51.952Z,88.05
2023-04-07T01:41:55.798Z,87.82
2023-04-07T01:43:59.585Z,87.18
2023-04-07T01:46:04.845Z,86.59
2023-04-07T01:48:08.617Z,86.46
2023-04-07T01:50:12.961Z,87.81
2023-04-07T01:52:16.391Z,86.14
2023-04-07T01:54:19.766Z,87.79
2023-04-07T01:56:22.844Z,87.36
2023-04-07T01:58:28.663Z,86.59
2023-04-07T02:00:32.667Z,86.42
2023-04-07T02:02:43.142Z,87.37
2023-04-07T02:04:50.583Z,87.60
2023-04-07T02:06:56.442Z,87.62
2023-04-07T02:09:12.060Z,86.46
2023-04-07T02:11:17.018Z,87.27
2023-04-07T02:13:21.825Z,86.15
2023-04-07T02:15:27.393Z,86.53
2023-04-07T02:17:30.522Z,87.53
2023-04-07T02:19:35.988Z,86.08
2023-04-07T02:21:41.187Z,87.32
2023-04-07T02:23:44.193Z,86.15
2023-04-07T02:25:47.368Z,87.39
2023-04-07T02:27:50.422Z,86.18
2023-04-07T02:29:55.264Z,86.98
2023-04-07T02:31:59.681Z,86.40
2023-04-07T02:34:05.832Z,86.70
2023-04-07T02:36:10.501Z,86.40
2023-04-07T02:38:13.576Z,86.96
2023-04-07T02:40:17.106Z,87.23
2023-04-07T02:42:20.617Z,86.86
2023-04-07T02:44:24.643Z,86.80
2023-04-07T02:46:27.742Z,86.61
2023-04-07T02:48:30.937Z,87.43
2023-04-07T02:50:34.101Z,87.94
2023-04-07T02:52:38.529Z,87.03
2023-04-07T02:54:47.429Z,88.15
2023-04-07T02:56:51.627Z,87.74
2023-04-07T02:58:54.764Z,87.15
2023-04-07T03:00:58.438Z,87.34
2023-04-07T03:03:05.590Z,88.18
2023-04-07T03:05:12.701Z,86.64
2023-04-07T03:07:15.775Z,88.23
2023-04-07T03:09:20.311Z,88.34
2023-04-07T03:11:23.405Z,87.31
2023-04-07T03:13:29.848Z,88.01
2023-04-07T03:15:33.019Z,87.62
2023-04-07T03:17:36.656Z,88.86
2023-04-07T03:19:41.135Z,89.10
2023-04-07T03:21:44.428Z,87.36
2023-04-07T03:23:47.717Z,87.39
2023-04-07T03:25:52.411Z,87.20
2023-04-07T03:27:56.006Z,88.16
2023-04-07T03:30:01.055Z,88.24
2023-04-07T03:32:06.093Z,89.09
2023-04-07T03:34:09.589Z,89.38
2023-04-07T03:36:13.962Z,90.14
2023-04-07T03:38:17.419Z,89.33
2023-04-07T03:40:22.110Z,90.03
2023-04-07T03:42:26.733Z,90.89
2023-04-07T03:44:36.314Z,90.96
2023-04-07T03:46:39.462Z,90.66
2023-04-07T03:48:42.624Z,92.11
2023-04-07T03:50:47.589Z,92.11
2023-04-07T03:52:53.528Z,90.87
2023-04-07T03:55:01.075Z,91.63
2023-04-07T03:57:07.567Z,91.32
2023-04-07T03:59:17.535Z,92.24
2023-04-07T04:01:33.226Z,90.95
2023-04-07T04:03:43.852Z,92.32
2023-04-07T04:05:57.783Z,92.64
2023-04-07T04:08:11.192Z,92.54
2023-04-07T04:10:16.405Z,92.59
2023-04-07T04:12:23.883Z,91.38
2023-04-07T04:14:39.372Z,91.34
2023-04-07T04:16:44.584Z,92.66
2023-04-07T04:19:00.823Z,91.68
2023-04-07T04:21:06.966Z,92.24
2023-04-07T04:23:10.799Z,91.19
2023-04-07T04:25:13.958Z,92.07
2023-04-07T04:27:22.314Z,91.26
2023-04-07T04:29:31.693Z,92.33
2023-04-07T04:31:38.545Z,91.17
2023-04-07T04:33:42.033Z,92.65
2023-04-07T04:35:46.390Z,92.75
2023-04-07T04:37:52.911Z,92.85
2023-04-07T04:39:56.128Z,91.75
2023-04-07T04:42:01.227Z,92.68
2023-04-07T04:44:09.734Z,92.48
2023-04-07T04:46:15.475Z,91.20
2023-04-07T04:48:21.214Z,91.96
2023-04-07T04:50:24.311Z,91.61
2023-04-07T04:52:28.871Z,92.38
2023-04-07T04:54:33.116Z,92.55
2023-04-07T04:56:36.545Z,93.25
2023-04-07T04:58:42.119Z,93.51
2023-04-07T05:00:47.126Z,93.23
2023-04-07T05:02:50.684Z,91.55
2023-04-07T05:04:55.358Z,92.03
2023-04-07T05:07:02.547Z,92.21
2023-04-07T05:09:07.443Z,91.21
2023-04-07T05:11:17.897Z,92.32
2023-04-07T05:13:25.754Z,92.61
2023-04-07T05:15:29.464Z,92.13
2023-04-07T05:17:33.245Z,92.11
2023-04-07T05:19:37.684Z,92.35
2023-04-07T05:21:49.474Z,93.30
2023-04-07T05:23:54.333Z,93.18
2023-04-07T05:25:59.709Z,92.30
2023-04-07T05:28:02.814Z,93.21
2023-04-07T05:30:07.034Z,92.40
2023-04-07T05:32:11.295Z,92.78
2023-04-07T05:34:14.421Z,92.97
2023-04-07T05:36:24.224Z,93.03
2023-04-07T05:38:32.553Z,93.37
2023-04-07T05:40:42.963Z,93.09
2023-04-07T05:42:51.090Z,94.27
2023-04-07T05:44:54.391Z,94.38
2023-04-07T05:46:59.539Z,93.12
2023-04-07T05:49:18.968Z,94.66
2023-04-07T05:51:27.551Z,94.35
2023-04-07T05:53:33.493Z,93.88
2023-04-07T05:55:36.657Z,94.99
2023-04-07T05:57:41.856Z,94.94
2023-04-07T05:59:46.457Z,94.77
2023-04-07T06:01:50.685Z,95.03
2023-04-07T06:03:54.229Z,94.59
2023-04-07T06:06:00.319Z,95.42
2023-04-07T06:08:03.439Z,95.31
2023-04-07T06:10:09.673Z,94.47
2023-04-07T06:12:13.459Z,95.71
2023-04-07T06:14:16.760Z,95.44
2023-04-07T06:16:20.515Z,94.62
2023-04-07T06:18:23.592Z,95.06
2023-04-07T06:20:27.750Z,94.42
2023-04-07T06:22:30.766Z,94.37
2023-04-07T06:24:33.839Z,95.28
2023-04-07T06:26:38.331Z,94.59
2023-04-07T06:28:41.473Z,94.93
2023-04-07T06:30:44.556Z,94.67
2023-04-07T06:32:49.495Z,93.83
2023-04-07T06:34:52.581Z,93.71
2023-04-07T06:36:58.195Z,93.50
2023-04-07T06:39:02.451Z,94.06
2023-04-07T06:41:06.306Z,93.94
2023-04-07T06:43:10.730Z,94.03
2023-04-07T06:45:18.309Z,93.47
2023-04-07T06:47:21.395Z,93.66
2023-04-07T06:49:24.453Z,94.00
2023-04-07T06:51:27.788Z,93.79
2023-04-07T06:53:31.048Z,93.41
2023-04-07T06:55:34.129Z,93.32
2023-04-07T06:57:37.701Z,93.26
2023-04-07T06:59:42.131Z,92.43
2023-04-07T07:01:45.513Z,92.34
2023-04-07T07:03:48.997Z,91.86
2023-04-07T07:05:52.866Z,91.57
2023-04-07T07:07:57.641Z,91.31
2023-04-07T07:10:00.933Z,91.50
2023-04-07T07:12:04.440Z,91.85
2023-04-07T07:14:07.550Z,91.04
2023-04-07T07:16:12.877Z,90.91
2023-04-07T07:18:16.243Z,91.40
2023-04-07T07:20:19.427Z,90.61
2023-04-07T07:22:22.508Z,90.56
2023-04-07T07:24:25.678Z,89.26
2023-04-07T07:26:28.742Z,89.03
2023-04-07T07:28:31.874Z,88.69
2023-04-07T07:30:34.862Z,88.96
2023-04-07T07:32:39.599Z,88.45
2023-04-07T07:34:42.686Z,88.37
2023-04-07T07:36:46.009Z,88.63
2023-04-07T07:38:51.350Z,87.50
2023-04-07T07:40:54.630Z,88.66
2023-04-07T07:42:57.745Z,88.56
2023-04-07T07:45:01.165Z,87.39
2023-04-07T07:47:04.278Z,87.40
2023-04-07T07:49:08.745Z,89.40
2023-04-07T07:51:12.018Z,88.73
2023-04-07T07:53:15.254Z,87.34
2023-04-07T07:55:18.305Z,86.40
2023-04-07T07:57:21.961Z,85.28
2023-04-07T07:59:25.147Z,86.88
2023-04-07T08:01:28.445Z,83.33
2023-04-07T08:03:32.006Z,83.94
2023-04-07T08:05:36.502Z,84.39
2023-04-07T08:07:39.678Z,80.96
2023-04-07T08:09:42.918Z,81.91
2023-04-07T08:11:45.918Z,79.59
2023-04-07T08:13:49.686Z,80.49
2023-04-07T08:15:53.097Z,78.85
2023-04-07T08:17:56.538Z,77.58
2023-04-07T08:19:59.813Z,78.39
2023-04-07T08:22:04.357Z,79.44
2023-04-07T08:24:07.920Z,78.99
2023-04-07T08:26:11.053Z,77.34
2023-04-07T08:28:14.150Z,77.32
2023-04-07T08:30:17.336Z,77.97
2023-04-07T08:32:20.554Z,75.85
2023-04-07T08:34:23.954Z,75.62
2023-04-07T08:36:28.028Z,76.79
2023-04-07T08:38:32.512Z,77.17
2023-04-07T08:40:35.635Z,77.29
2023-04-07T08:42:43.021Z,76.79
2023-04-07T08:44:46.404Z,74.83
2023-04-07T08:46:50.543Z,74.57
2023-04-07T08:48:54.276Z,73.66
2023-04-07T08:50:57.618Z,74.95
2023-04-07T08:53:02.044Z,75.35
2023-04-07T08:55:08.533Z,74.42
2023-04-07T08:57:12.286Z,75.04
2023-04-07T08:59:18.641Z,73.59
2023-04-07T09:01:24.422Z,72.70
2023-04-07T09:03:27.802Z,73.20
2023-04-07T09:05:31.193Z,74.33
2023-04-07T09:07:35.595Z,73.17
2023-04-07T09:09:38.754Z,74.92
2023-04-07T09:11:43.181Z,74.34
2023-04-07T09:13:47.137Z,73.86
2023-04-07T09:15:50.360Z,72.72
2023-04-07T09:17:53.449Z,72.21
2023-04-07T09:19:58.332Z,73.37
2023-04-07T09:22:01.371Z,72.55
2023-04-07T09:24:21.811Z,73.53
2023-04-07T09:26:26.099Z,70.86
2023-04-07T09:28:42.388Z,71.00
2023-04-07T09:30:54.142Z,70.60
2023-04-07T09:32:57.276Z,70.55
2023-04-07T09:35:01.136Z,70.72
2023-04-07T09:37:04.900Z,72.38
2023-04-07T09:39:10.683Z,73.01
2023-04-07T09:41:15.234Z,72.88
2023-04-07T09:43:20.431Z,72.91
2023-04-07T09:45:34.432Z,71.73
2023-04-07T09:47:39.343Z,72.35
2023-04-07T09:49:52.421Z,74.06
2023-04-07T09:51:56.871Z,71.45
2023-04-07T09:54:00.327Z,71.87
2023-04-07T09:56:03.786Z,73.73
2023-04-07T09:58:07.544Z,73.66
2023-04-07T10:00:12.942Z,71.21
2023-04-07T10:02:20.449Z,73.71
2023-04-07T10:04:24.014Z,74.42
2023-04-07T10:06:27.629Z,74.10
2023-04-07T10:08:33.350Z,71.48
2023-04-07T10:10:37.023Z,70.70
2023-04-07T10:12:41.543Z,70.06
2023-04-07T10:14:47.060Z,69.56
2023-04-07T10:16:52.291Z,70.10
2023-04-07T10:18:56.829Z,71.10
2023-04-07T10:21:02.749Z,71.77
2023-04-07T10:23:12.480Z,70.29
2023-04-07T10:25:18.560Z,71.93
2023-04-07T10:27:25.541Z,73.30
2023-04-07T10:29:30.716Z,71.57
2023-04-07T10:31:34.250Z,71.51
2023-04-07T10:33:48.314Z,71.84
2023-04-07T10:36:07.049Z,72.14
2023-04-07T10:38:15.252Z,73.80
2023-04-07T10:40:36.416Z,73.06
2023-04-07T10:42:46.468Z,73.89
2023-04-07T10:44:53.107Z,72.41
2023-04-07T10:47:06.163Z,71.96
2023-04-07T10:49:10.419Z,71.97
2023-04-07T10:51:18.980Z,70.81
2023-04-07T10:53:22.530Z,72.00
2023-04-07T10:55:33.846Z,69.64
2023-04-07T10:57:37.779Z,70.93
2023-04-07T10:59:47.015Z,71.74
2023-04-07T11:01:50.701Z,69.26
2023-04-07T11:03:56.183Z,69.83
2023-04-07T11:06:04.860Z,69.36
2023-04-07T11:08:09.394Z,70.10
2023-04-07T11:10:13.119Z,68.42
2023-04-07T11:12:23.714Z,69.93
2023-04-07T11:14:28.146Z,70.24
2023-04-07T11:16:42.868Z,71.72
2023-04-07T11:18:47.795Z,71.86
2023-04-07T11:20:53.801Z,69.76
2023-04-07T11:23:01.165Z,69.74
2023-04-07T11:25:21.830Z,69.46
2023-04-07T11:27:25.581Z,67.85
2023-04-07T11:29:30.398Z,67.29
2023-04-07T11:31:33.494Z,68.96
2023-04-07T11:33:38.952Z,69.48
2023-04-07T11:35:49.128Z,69.83
2023-04-07T11:37:58.782Z,69.24
2023-04-07T11:40:01.822Z,69.63
2023-04-07T11:42:06.379Z,69.80
2023-04-07T11:44:10.726Z,68.87
2023-04-07T11:46:15.744Z,70.85
2023-04-07T11:48:28.531Z,69.05
2023-04-07T11:50:41.974Z,67.36
2023-04-07T11:52:45.861Z,68.46
2023-04-07T11:54:49.951Z,69.69
2023-04-07T11:56:55.605Z,68.02
2023-04-07T11:59:00.117Z,67.50
2023-04-07T12:01:06.966Z,65.86
2023-04-07T12:03:14.685Z,65.55
2023-04-07T12:05:18.252Z,64.40
2023-04-07T12:07:21.320Z,63.72
2023-04-07T12:09:30.106Z,63.04
2023-04-07T12:11:33.838Z,66.18
2023-04-07T12:13:37.241Z,66.24
2023-04-07T12:15:42.409Z,66.57
2023-04-07T12:17:46.851Z,65.45
2023-04-07T12:19:49.985Z,65.81
2023-04-07T12:21:53.108Z,65.25
2023-04-07T12:23:56.097Z,63.68
2023-04-07T12:25:59.159Z,64.52
2023-04-07T12:28:02.260Z,65.53
2023-04-07T12:30:05.919Z,64.78
2023-04-07T12:32:10.302Z,65.16
2023-04-07T12:34:13.375Z,63.42
2023-04-07T12:36:17.099Z,64.91
2023-04-07T12:38:20.200Z,63.39
2023-04-07T12:40:23.312Z,65.08
2023-04-07T12:42:27.208Z,63.55
2023-04-07T12:44:30.359Z,66.38
2023-04-07T12:46:33.460Z,65.99
2023-04-07T12:48:37.962Z,65.55
2023-04-07T12:50:43.568Z,66.67
2023-04-07T12:52:47.229Z,65.94
2023-04-07T12:54:50.264Z,66.28
2023-04-07T12:56:53.334Z,66.16
2023-04-07T12:58:56.397Z,67.33
2023-04-07T13:01:00.753Z,67.07
2023-04-07T13:03:04.593Z,67.31
2023-04-07T13:05:09.541Z,68.33
2023-04-07T13:07:12.629Z,69.99
2023-04-07T13:09:16.056Z,71.02
2023-04-07T13:11:19.157Z,70.47
2023-04-07T13:13:22.302Z,68.70
2023-04-07T13:15:25.504Z,69.70
2023-04-07T13:17:29.026Z,69.41
2023-04-07T13:19:32.337Z,70.30
2023-04-07T13:21:46.113Z,71.09
2023-04-07T13:23:51.649Z,72.32
2023-04-07T13:25:54.813Z,72.84
2023-04-07T13:27:57.951Z,73.52
2023-04-07T13:30:01.045Z,74.24
2023-04-07T13:32:08.423Z,74.79
2023-04-07T13:34:11.541Z,72.56
2023-04-07T13:36:14.705Z,72.24
2023-04-07T13:38:19.273Z,72.82
2023-04-07T13:40:22.332Z,73.49
2023-04-07T13:42:25.549Z,74.00
2023-04-07T13:44:29.704Z,72.71
2023-04-07T13:46:32.745Z,72.60
2023-04-07T13:48:35.881Z,73.22
2023-04-07T13:50:40.948Z,73.10
2023-04-07T13:52:43.996Z,73.45
2023-04-07T13:54:48.846Z,72.40
2023-04-07T13:56:52.012Z,72.74
2023-04-07T13:58:55.133Z,72.06
2023-04-07T14:00:58.887Z,72.39
2023-04-07T14:03:02.634Z,71.08
2023-04-07T14:05:06.326Z,71.29
2023-04-07T14:07:09.456Z,71.58
2023-04-07T14:09:12.606Z,70.80
2023-04-07T14:11:19.571Z,70.65
2023-04-07T14:13:23.138Z,71.54
2023-04-07T14:15:26.398Z,71.49
2023-04-07T14:17:29.549Z,71.97
2023-04-07T14:19:33.311Z,72.47
2023-04-07T14:21:36.395Z,72.02
2023-04-07T14:23:39.524Z,72.14
2023-04-07T14:25:42.682Z,71.52
2023-04-07T14:27:47.287Z,71.42
2023-04-07T14:29:50.639Z,71.15
2023-04-07T14:31:53.672Z,71.66
2023-04-07T14:33:56.769Z,71.91
2023-04-07T14:35:59.860Z,71.48
2023-04-07T14:38:03.614Z,69.20
2023-04-07T14:40:08.420Z,68.50
2023-04-07T14:42:11.758Z,67.60
2023-04-07T14:44:16.758Z,68.12
2023-04-07T14:46:19.856Z,67.42
2023-04-07T14:48:23.310Z,67.66
2023-04-07T14:50:26.471Z,67.83
2023-04-07T14:52:29.930Z,67.23
2023-04-07T14:54:32.996Z,67.25
2023-04-07T14:56:36.187Z,68.40
2023-04-07T14:58:40.674Z,66.50
2023-04-07T15:00:45.551Z,69.27
2023-04-07T15:02:49.054Z,69.32
2023-04-07T15:04:52.491Z,67.67
2023-04-07T15:06:56.212Z,67.26
2023-04-07T15:08:59.318Z,68.99
2023-04-07T15:11:04.652Z,69.02
2023-04-07T15:13:07.762Z,67.93
2023-04-07T15:15:11.445Z,69.08
2023-04-07T15:17:18.276Z,70.17
2023-04-07T15:19:21.474Z,69.41
2023-04-07T15:21:24.832Z,70.27
2023-04-07T15:23:28.016Z,69.69
2023-04-07T15:25:31.130Z,70.83
2023-04-07T15:27:34.189Z,71.08
2023-04-07T15:29:37.337Z,69.99
2023-04-07T15:31:40.483Z,69.49
2023-04-07T15:33:46.269Z,70.35
2023-04-07T15:35:49.390Z,71.48
2023-04-07T15:37:52.579Z,72.34
2023-04-07T15:39:55.914Z,73.05
2023-04-07T15:41:59.019Z,73.45
2023-04-07T15:44:02.875Z,73.48
2023-04-07T15:46:06.074Z,72.48
2023-04-07T15:48:09.208Z,72.49
2023-04-07T15:50:13.876Z,72.65
2023-04-07T15:52:16.961Z,73.83
2023-04-07T15:54:20.454Z,73.48
2023-04-07T15:56:24.852Z,74.48
2023-04-07T15:58:28.260Z,72.50
2023-04-07T16:00:33.988Z,72.60
2023-04-07T16:02:37.066Z,72.40
2023-04-07T16:04:40.312Z,72.79
2023-04-07T16:06:44.732Z,75.12
2023-04-07T16:08:47.982Z,74.01
2023-04-07T16:10:51.174Z,74.52
2023-04-07T16:12:54.263Z,74.20
2023-04-07T16:14:57.504Z,74.95
2023-04-07T16:17:00.828Z,74.10
2023-04-07T16:19:04.061Z,72.46
2023-04-07T16:21:08.628Z,73.60
2023-04-07T16:23:13.432Z,74.02
2023-04-07T16:25:16.964Z,75.43
2023-04-07T16:27:20.081Z,74.92
2023-04-07T16:29:23.550Z,76.42
2023-04-07T16:31:26.868Z,74.96
2023-04-07T16:33:30.076Z,76.11
2023-04-07T16:35:33.222Z,76.06
2023-04-07T16:37:36.370Z,75.94
2023-04-07T16:39:40.833Z,75.52
2023-04-07T16:41:43.986Z,75.68
2023-04-07T16:43:47.442Z,74.57
2023-04-07T16:45:51.984Z,74.73
2023-04-07T16:47:55.376Z,75.34
2023-04-07T16:49:59.015Z,75.80
2023-04-07T16:52:02.152Z,75.37
2023-04-07T16:54:05.573Z,75.72
2023-04-07T16:56:16.494Z,75.59
2023-04-07T16:58:19.858Z,75.66
2023-04-07T17:00:23.061Z,75.67
2023-04-07T17:02:27.671Z,75.56
2023-04-07T17:04:31.267Z,74.99
2023-04-07T17:06:34.422Z,75.63
2023-04-07T17:08:39.242Z,75.29
2023-04-07T17:10:42.363Z,75.63
2023-04-07T17:12:52.155Z,75.82
2023-04-07T17:14:55.339Z,75.93
2023-04-07T17:16:58.665Z,73.57
2023-04-07T17:19:01.890Z,73.88
2023-04-07T17:21:05.004Z,74.48
2023-04-07T17:23:09.293Z,75.10
2023-04-07T17:25:12.407Z,75.74
2023-04-07T17:27:15.532Z,75.85
2023-04-07T17:29:20.988Z,75.75
2023-04-07T17:31:24.441Z,74.08
2023-04-07T17:33:29.574Z,73.59
2023-04-07T17:35:33.699Z,74.40
2023-04-07T17:37:38.392Z,74.10
2023-04-07T17:39:41.712Z,74.66
2023-04-07T17:41:46.791Z,74.85
2023-04-07T17:43:50.106Z,75.36
2023-04-07T17:45:54.769Z,74.94
2023-04-07T17:47:57.977Z,75.51
2023-04-07T17:50:01.762Z,75.44
2023-04-07T17:52:04.970Z,75.83
2023-04-07T17:54:08.101Z,76.17
2023-04-07T17:56:11.234Z,76.04
2023-04-07T17:58:14.553Z,75.63
2023-04-07T18:00:18.477Z,75.33
2023-04-07T18:02:23.251Z,76.15
2023-04-07T18:04:27.091Z,77.09
2023-04-07T18:06:30.757Z,77.42
2023-04-07T18:08:33.812Z,77.75
2023-04-07T18:10:37.217Z,78.76
2023-04-07T18:12:40.718Z,79.94
2023-04-07T18:14:43.788Z,78.70
2023-04-07T18:16:47.092Z,79.29
2023-04-07T18:18:52.524Z,79.20
2023-04-07T18:20:55.520Z,79.02
2023-04-07T18:22:58.831Z,80.01
2023-04-07T18:25:02.055Z,80.55
2023-04-07T18:27:05.437Z,80.18
2023-04-07T18:29:10.108Z,79.63
2023-04-07T18:31:13.465Z,79.80
2023-04-07T18:33:16.832Z,79.89
2023-04-07T18:35:21.402Z,81.25
2023-04-07T18:37:24.610Z,80.28
2023-04-07T18:39:28.031Z,79.07
2023-04-07T18:41:31.593Z,79.45
2023-04-07T18:43:34.680Z,80.36
2023-04-07T18:45:37.876Z,80.04
2023-04-07T18:47:41.036Z,80.65
2023-04-07T18:49:44.172Z,79.91
2023-04-07T18:51:48.731Z,79.33
2023-04-07T18:53:51.918Z,79.49
2023-04-07T18:55:55.468Z,79.41
2023-04-07T18:57:58.590Z,79.14
2023-04-07T19:00:02.042Z,78.30
2023-04-07T19:02:05.235Z,77.53
2023-04-07T19:04:08.630Z,79.14
2023-04-07T19:06:14.725Z,78.35
2023-04-07T19:08:19.261Z,78.17
2023-04-07T19:10:22.495Z,78.36
2023-04-07T19:12:25.761Z,79.46
2023-04-07T19:14:28.834Z,79.70
2023-04-07T19:16:33.129Z,80.41
2023-04-07T19:18:37.080Z,79.69
2023-04-07T19:20:40.237Z,79.19
2023-04-07T19:22:43.293Z,80.93
2023-04-07T19:24:47.730Z,81.17
2023-04-07T19:26:51.744Z,79.86
2023-04-07T19:28:54.807Z,81.51
2023-04-07T19:30:57.946Z,81.37
2023-04-07T19:33:01.127Z,79.49
2023-04-07T19:35:04.582Z,81.46
2023-04-07T19:37:08.274Z,81.38
2023-04-07T19:39:11.839Z,80.21
2023-04-07T19:41:16.522Z,80.87
2023-04-07T19:43:20.214Z,78.91
2023-04-07T19:45:23.330Z,79.94
2023-04-07T19:47:27.226Z,79.76
2023-04-07T19:49:30.344Z,80.25
2023-04-07T19:51:33.464Z,81.67
2023-04-07T19:53:36.507Z,81.16
2023-04-07T19:55:39.644Z,79.73
2023-04-07T19:57:44.081Z,79.58
2023-04-07T19:59:48.546Z,80.12
2023-04-07T20:01:52.585Z,79.88
2023-04-07T20:03:55.864Z,81.20
2023-04-07T20:05:59.729Z,81.43
2023-04-07T20:08:03.074Z,81.00
2023-04-07T20:10:07.062Z,81.72
2023-04-07T20:12:10.155Z,81.02
2023-04-07T20:14:14.769Z,80.93
2023-04-07T20:16:18.023Z,81.21
2023-04-07T20:18:21.086Z,81.04
2023-04-07T20:20:24.257Z,80.95
2023-04-07T20:22:27.606Z,81.86
2023-04-07T20:24:30.833Z,81.21
2023-04-07T20:26:34.231Z,81.06
2023-04-07T20:28:37.260Z,82.72
2023-04-07T20:30:41.702Z,82.59
2023-04-07T20:32:46.262Z,82.43
2023-04-07T20:34:52.070Z,80.97
2023-04-07T20:36:55.100Z,83.36
2023-04-07T20:38:58.692Z,81.41
2023-04-07T20:41:01.905Z,82.59
2023-04-07T20:43:05.086Z,81.23
2023-04-07T20:45:09.537Z,81.56
2023-04-07T20:47:14.128Z,81.62
2023-04-07T20:49:17.370Z,83.60
2023-04-07T20:51:20.557Z,82.73
2023-04-07T20:53:23.672Z,82.94
2023-04-07T20:55:27.289Z,83.21
2023-04-07T20:57:30.691Z,83.54
2023-04-07T20:59:33.721Z,82.96
2023-04-07T21:01:36.872Z,84.06
2023-04-07T21:03:41.398Z,83.31
2023-04-07T21:05:45.819Z,82.22
2023-04-07T21:07:48.923Z,82.10
2023-04-07T21:09:52.054Z,82.11
2023-04-07T21:11:55.584Z,82.92
2023-04-07T21:13:58.673Z,84.26
2023-04-07T21:16:03.859Z,83.98
2023-04-07T21:18:07.106Z,84.57
2023-04-07T21:20:12.622Z,83.74
2023-04-07T21:22:15.828Z,84.75
2023-04-07T21:24:18.977Z,84.89
2023-04-07T21:26:22.071Z,83.10
2023-04-07T21:28:25.195Z,84.65
2023-04-07T21:30:28.328Z,83.52
2023-04-07T21:32:31.382Z,85.28
2023-04-07T21:34:34.517Z,84.13
2023-04-07T21:36:40.055Z,84.57
2023-04-07T21:38:43.105Z,85.28
2023-04-07T21:40:46.173Z,85.39
2023-04-07T21:42:49.381Z,85.27
2023-04-07T21:44:52.758Z,84.93
2023-04-07T21:46:56.078Z,84.14
2023-04-07T21:48:59.459Z,84.97
2023-04-07T21:51:03.003Z,85.93
2023-04-07T21:53:08.949Z,86.49
2023-04-07T21:55:12.293Z,85.94
2023-04-07T21:57:15.396Z,84.75
2023-04-07T21:59:18.533Z,87.26
2023-04-07T22:01:21.709Z,86.18
2023-04-07T22:03:25.191Z,87.37
2023-04-07T22:05:28.823Z,87.72
2023-04-07T22:07:31.918Z,87.94
2023-04-07T22:09:36.907Z,86.81
2023-04-07T22:11:40.021Z,87.93
2023-04-07T22:13:43.169Z,87.33
2023-04-07T22:15:46.358Z,88.06
2023-04-07T22:17:49.506Z,87.79
2023-04-07T22:19:52.521Z,87.29
2023-04-07T22:21:55.584Z,86.06
2023-04-07T22:23:58.618Z,87.87
2023-04-07T22:26:03.160Z,86.66
2023-04-07T22:28:06.376Z,87.57
2023-04-07T22:30:10.975Z,87.59
2023-04-07T22:32:14.852Z,88.95
2023-04-07T22:34:17.945Z,89.28
2023-04-07T22:36:20.995Z,87.78
2023-04-07T22:38:24.520Z,89.08
2023-04-07T22:40:27.554Z,89.38
2023-04-07T22:42:32.120Z,88.69
2023-04-07T22:44:35.204Z,89.72
2023-04-07T22:46:38.330Z,88.78
2023-04-07T22:48:41.351Z,89.50
2023-04-07T22:50:44.371Z,89.30
2023-04-07T22:52:47.408Z,89.24
2023-04-07T22:54:50.496Z,89.71
2023-04-07T22:56:53.572Z,90.37
2023-04-07T22:59:05.207Z,90.78
2023-04-07T23:01:08.554Z,90.63
2023-04-07T23:03:11.746Z,90.35
2023-04-07T23:05:14.777Z,89.82
2023-04-07T23:07:17.818Z,90.11
2023-04-07T23:09:20.793Z,90.56
2023-04-07T23:11:24.013Z,91.54
2023-04-07T23:13:27.232Z,90.52
2023-04-07T23:15:31.696Z,90.31
2023-04-07T23:17:35.407Z,91.00
2023-04-07T23:19:38.421Z,91.53
2023-04-07T23:21:41.640Z,89.84
2023-04-07T23:23:44.618Z,91.74
2023-04-07T23:25:47.624Z,90.32
2023-04-07T23:27:50.653Z,91.76
2023-04-07T23:29:53.912Z,92.05
2023-04-07T23:31:58.521Z,90.34
2023-04-07T23:34:02.423Z,92.58
2023-04-07T23:36:06.172Z,92.56
2023-04-07T23:38:10.919Z,92.46
2023-04-07T23:40:14.747Z,91.86
2023-04-07T23:42:17.894Z,92.48
2023-04-07T23:44:21.767Z,92.84
2023-04-07T23:46:25.400Z,92.11
2023-04-07T23:48:29.930Z,91.27
2023-04-07T23:50:32.965Z,92.17
2023-04-07T23:52:35.997Z,92.22
2023-04-07T23:54:39.131Z,92.29
2023-04-07T23:56:42.381Z,91.53
2023-04-07T23:58:45.498Z,92.05
